Time;durP1;ratioP1;P1;durP2;ratioP2;P2;SDS_P1;SDS_P2;PMS_P1;PMS_P2;Temp;Humidity;BMP_temperature;BMP_pressure;BME280_temperature;BME280_humidity;BME280_pressure;Samples;Min_cycle;Max_cycle;Signal;HPM_P1;HPM_P2
2021/06/13 00:04:17;;;;;;;22.60;18.10;;;;;;;13.29;88.80;98649.06;262077;1090;22880;-76
2021/06/13 00:18:29;;;;;;;27.00;19.05;;;;;;;13.28;88.87;98666.33;262121;1090;22794;-76
2021/06/13 00:32:12;;;;;;;;;;;;;;;;;;;;;
2021/06/13 01:00:27;;;;;;;20.80;14.63;;;;;;;13.11;88.40;98683.95;261855;1089;22874;-75
2021/06/13 01:07:30;;;;;;;21.07;14.57;;;;;;;13.06;88.16;98694.04;261704;1090;26293;-76
2021/06/13 01:14:17;;;;;;;19.30;13.75;;;;;;;12.99;88.12;98697.94;262043;1090;25852;-75
2021/06/13 01:21:24;;;;;;;15.93;11.73;;;;;;;12.95;88.34;98696.95;262117;1090;22802;-75
2021/06/13 01:42:43;;;;;;;14.90;11.40;;;;;;;12.65;88.06;98699.27;262059;1090;27092;-76
2021/06/13 01:49:47;;;;;;;11.85;9.70;;;;;;;12.45;88.02;98703.22;261930;1090;22930;-75
2021/06/13 01:56:54;;;;;;;12.90;9.30;;;;;;;12.35;88.20;98702.63;262630;1089;23417;-76
2021/06/13 02:03:56;;;;;;;;;;;;;;;;;;;;;
2021/06/13 02:11:16;;;;;;;15.00;10.80;;;;;;;12.38;88.26;98707.40;262434;1090;23861;-76
2021/06/13 02:18:12;;;;;;;16.13;12.77;;;;;;;12.41;88.34;98718.35;262650;1090;22789;-76
2021/06/13 02:46:25;;;;;;;21.68;14.80;;;;;;;12.32;88.90;98736.27;263842;1090;22802;-75
2021/06/13 03:00:27;;;;;;;;;;;;;;;;;;;;;
2021/06/13 03:07:41;;;;;;;12.70;9.40;;;;;;;12.15;88.61;98759.14;262748;1089;22947;-76
2021/06/13 03:21:45;;;;;;;12.33;8.93;;;;;;;12.13;88.65;98779.36;262005;1090;22786;-75
2021/06/13 03:28:33;;;;;;;13.17;8.80;;;;;;;12.15;88.77;98779.84;262616;1089;26267;-76
2021/06/13 03:49:05;;;;;;;10.97;8.50;;;;;;;12.42;88.68;98803.23;262215;1088;26222;-74
2021/06/13 03:55:59;;;;;;;;;;;;;;;;;;;;;
2021/06/13 04:02:35;;;;;;;;;;;;;;;;;;;;;
2021/06/13 04:09:40;;;;;;;12.00;9.50;;;;;;;12.63;88.47;98821.59;262258;1089;22830;-76
2021/06/13 04:23:37;;;;;;;12.67;11.00;;;;;;;12.79;88.20;98836.31;262272;1090;22863;-75
2021/06/13 04:30:24;;;;;;;18.53;13.30;;;;;;;12.82;87.64;98837.61;262150;1088;25762;-74
2021/06/13 04:43:36;;;;;;;16.55;12.85;;;;;;;12.70;87.41;98846.17;261973;1090;22792;-75
2021/06/13 04:57:35;;;;;;;12.90;9.80;;;;;;;12.48;86.75;98865.72;262719;1089;26245;-76
2021/06/13 05:18:22;;;;;;;13.47;10.80;;;;;;;12.49;86.33;98881.53;262278;1090;22792;-75
2021/06/13 05:25:19;;;;;;;10.90;8.40;;;;;;;12.65;86.46;98889.30;261952;1090;25208;-75
2021/06/13 05:39:05;;;;;;;9.97;8.87;;;;;;;12.92;84.65;98901.91;262259;1090;22789;-74
2021/06/13 05:45:21;;;;;;;;;;;;;;;;;;;;;
2021/06/13 05:51:55;;;;;;;11.85;8.25;;;;;;;13.17;83.47;98924.78;263259;1090;24493;-74
2021/06/13 05:58:07;;;;;;;8.70;6.90;;;;;;;13.37;82.83;98930.06;263241;1089;22812;-75
2021/06/13 06:03:43;;;;;;;11.95;6.50;;;;;;;13.35;82.57;98949.20;262844;1090;26028;-75
2021/06/13 06:09:32;;;;;;;9.00;7.30;;;;;;;13.39;82.48;98938.62;263110;1090;24195;-75
2021/06/13 06:16:24;;;;;;;7.60;5.45;;;;;;;13.52;81.95;98943.97;263034;1090;22868;-75
2021/06/13 06:29:31;;;;;;;6.57;4.60;;;;;;;14.02;79.58;98948.47;262917;1089;22939;-75
2021/06/13 06:35:06;;;;;;;6.27;4.03;;;;;;;14.03;78.90;98963.54;262365;1090;22943;-74
2021/06/13 06:41:47;;;;;;;7.83;4.57;;;;;;;13.91;78.35;98970.58;262877;1089;22783;-73
2021/06/13 06:48:52;;;;;;;6.60;4.30;;;;;;;13.75;78.59;98976.29;262011;1090;22937;-74
2021/06/13 07:10:05;;;;;;;4.58;2.70;;;;;;;13.83;76.38;98978.27;261986;1090;22827;-73
2021/06/13 07:23:48;;;;;;;5.20;2.60;;;;;;;13.66;75.56;98996.98;262172;1090;22788;-74
2021/06/13 07:30:34;;;;;;;;;;;;;;;;;;;;;
2021/06/13 07:37:02;;;;;;;;;;;;;;;;;;;;;
2021/06/13 07:43:46;;;;;;;;;;;;;;;;;;;;;
2021/06/13 07:56:50;;;;;;;6.00;2.10;;;;;;;14.34;71.68;99034.72;262705;1088;23025;-74
2021/06/13 08:02:18;;;;;;;3.80;1.80;;;;;;;14.42;70.66;99043.98;262713;1089;22937;-74
2021/06/13 08:08:06;;;;;;;;;;;;;;;;;;;;;
2021/06/13 08:14:06;;;;;;;3.95;1.55;;;;;;;14.52;69.92;99047.23;262798;1090;22796;-74
2021/06/13 08:20:52;;;;;;;;;;;;;;;;;;;;;
2021/06/13 08:27:01;;;;;;;;;;;;;;;;;;;;;
2021/06/13 08:32:58;;;;;;;4.40;1.65;;;;;;;15.07;67.78;99053.41;262834;1090;22850;-73
2021/06/13 08:39:54;;;;;;;3.73;2.05;;;;;;;15.62;65.21;99043.25;262386;1089;22828;-72
2021/06/13 08:45:45;;;;;;;3.85;1.80;;;;;;;15.88;65.02;99056.83;262753;1090;23262;-74
2021/06/13 08:51:17;;;;;;;2.85;1.65;;;;;;;15.79;63.12;99069.48;262834;1089;25899;-73
2021/06/13 09:03:07;;;;;;;6.00;2.30;;;;;;;14.81;63.60;99085.64;262038;1088;22803;-73
2021/06/13 09:14:55;;;;;;;5.20;2.10;;;;;;;15.02;63.46;99081.30;262838;1090;22932;-73
2021/06/13 09:20:33;;;;;;;;;;;;;;;;;;;;;
2021/06/13 09:26:32;;;;;;;3.03;1.90;;;;;;;15.63;61.15;99105.05;262696;1090;25823;-74
2021/06/13 09:39:37;;;;;;;3.28;2.00;;;;;;;16.06;60.18;99100.84;261605;1089;25899;-77
2021/06/13 09:45:31;;;;;;;4.05;1.58;;;;;;;16.32;59.79;99106.27;263218;1090;22840;-74
2021/06/13 09:51:50;;;;;;;3.70;1.85;;;;;;;15.95;57.91;99119.29;262784;1090;22813;-73
2021/06/13 09:58:53;;;;;;;5.05;1.70;;;;;;;15.87;59.21;99106.55;262125;1090;22829;-75
2021/06/13 10:05:38;;;;;;;3.35;2.30;;;;;;;16.14;60.79;99118.19;261405;1093;22910;-74
2021/06/13 10:19:45;;;;;;;4.90;2.10;;;;;;;16.67;59.65;99141.39;261856;1090;22812;-73
2021/06/13 10:26:24;;;;;;;3.85;1.80;;;;;;;17.09;59.80;99124.64;262456;1089;24522;-73
2021/06/13 10:32:14;;;;;;;4.30;1.90;;;;;;;17.28;56.58;99138.59;262996;1089;25861;-73
2021/06/13 10:38:32;;;;;;;2.60;1.70;;;;;;;16.76;55.23;99130.59;262228;1090;22795;-73
2021/06/13 10:45:05;;;;;;;7.20;2.20;;;;;;;16.36;57.70;99145.06;262836;1089;22782;-74
2021/06/13 10:52:01;;;;;;;;;;;;;;;;;;;;;
2021/06/13 10:58:56;;;;;;;;;;;;;;;;;;;;;
2021/06/13 11:05:24;;;;;;;3.60;1.70;;;;;;;17.19;53.29;99143.23;263059;1089;22837;-72
2021/06/13 11:18:29;;;;;;;3.40;1.40;;;;;;;17.07;51.58;99151.25;262657;1089;22818;-73
2021/06/13 11:25:14;;;;;;;4.20;1.40;;;;;;;17.15;49.84;99157.74;262889;1090;22895;-72
2021/06/13 11:30:45;;;;;;;2.05;1.20;;;;;;;17.33;49.57;99164.69;262889;1089;24346;-73
2021/06/13 11:36:14;;;;;;;;;;;;;;;;;;;;;
2021/06/13 11:41:46;;;;;;;4.03;1.60;;;;;;;17.71;51.40;99161.20;262412;1089;22836;-73
2021/06/13 11:47:42;;;;;;;3.30;1.43;;;;;;;17.66;51.33;99164.09;262546;1090;22790;-73
2021/06/13 11:53:01;;;;;;;5.00;1.60;;;;;;;17.47;50.67;99182.66;262001;1090;22863;-74
2021/06/13 11:59:17;;;;;;;5.30;1.70;;;;;;;17.35;51.81;99167.88;262523;1089;26639;-73
2021/06/13 12:12:34;;;;;;;3.75;1.50;;;;;;;18.13;50.40;99188.42;262492;1090;23224;-73
2021/06/13 12:18:15;;;;;;;3.30;1.45;;;;;;;17.93;49.15;99170.98;261925;1090;22795;-73
2021/06/13 12:27:21;;;;;;;3.17;1.40;;;;;;;17.71;49.52;99173.94;262581;1090;22799;-72
2021/06/13 12:29:58;;;;;;;;;;;;;;;;;;;;;
2021/06/13 12:36:12;;;;;;;3.30;1.50;;;;;;;17.43;49.72;99186.02;262775;1090;22841;-73
2021/06/13 12:41:49;;;;;;;3.10;1.20;;;;;;;17.62;49.77;99191.02;262803;1090;22797;-73
2021/06/13 12:46:53;;;;;;;3.30;1.20;;;;;;;17.66;46.90;99199.31;262830;1090;23376;-72
2021/06/13 12:52:15;;;;;;;4.90;1.67;;;;;;;17.65;48.44;99186.09;262675;1090;22844;-73
2021/06/13 12:57:20;;;;;;;5.13;1.90;;;;;;;17.81;48.55;99189.84;262789;1090;22825;-72
2021/06/13 13:02:30;;;;;;;3.45;1.80;;;;;;;17.49;47.90;99183.92;262642;1090;22806;-71
2021/06/13 13:07:53;;;;;;;4.20;1.50;;;;;;;17.16;48.99;99194.53;262604;1089;22940;-75
2021/06/13 13:12:57;;;;;;;4.00;1.35;;;;;;;16.91;49.08;99191.53;262659;1090;22785;-73
2021/06/13 13:18:14;;;;;;;3.03;1.27;;;;;;;16.62;49.73;99186.74;262556;1090;23197;-73
2021/06/13 13:23:18;;;;;;;2.65;1.20;;;;;;;16.57;49.98;99220.16;262635;1090;22866;-72
2021/06/13 13:28:28;;;;;;;2.90;1.50;;;;;;;16.58;50.50;99216.35;262972;1090;22789;-73
2021/06/13 13:33:33;;;;;;;2.57;1.70;;;;;;;16.67;50.99;99209.02;262853;1090;22783;-72
2021/06/13 13:38:46;;;;;;;2.25;1.20;;;;;;;16.72;50.39;99208.08;262567;1090;22863;-72
2021/06/13 13:44:01;;;;;;;3.25;1.10;;;;;;;16.87;51.51;99213.01;262559;1090;22802;-73
2021/06/13 13:49:06;;;;;;;3.47;1.20;;;;;;;17.15;50.40;99220.00;262590;1089;24059;-71
2021/06/13 13:54:31;;;;;;;2.75;1.50;;;;;;;16.94;49.53;99217.95;263190;1090;26018;-71
2021/06/13 13:59:37;;;;;;;4.87;1.27;;;;;;;16.59;49.91;99217.92;262707;1090;25870;-72
2021/06/13 14:04:40;;;;;;;4.90;2.20;;;;;;;16.48;51.07;99222.05;263027;1089;22863;-72
2021/06/13 14:09:43;;;;;;;3.30;1.40;;;;;;;16.54;50.91;99220.80;262752;1090;22917;-73
2021/06/13 14:14:47;;;;;;;2.05;1.05;;;;;;;16.56;51.40;99219.38;262741;1089;22818;-73
2021/06/13 14:19:50;;;;;;;1.00;0.90;;;;;;;16.70;51.00;99207.59;263005;1089;22798;-72
2021/06/13 14:25:46;;;;;;;2.15;1.10;;;;;;;16.86;51.35;99216.03;262689;1088;22856;-71
2021/06/13 14:31:12;;;;;;;4.60;1.20;;;;;;;16.95;50.53;99219.55;262598;1089;22807;-71
2021/06/13 14:36:15;;;;;;;2.10;1.00;;;;;;;17.04;50.24;99216.82;262611;1090;22801;-72
2021/06/13 14:41:19;;;;;;;2.70;1.20;;;;;;;17.04;49.37;99238.47;262657;1090;23369;-73
2021/06/13 14:47:04;;;;;;;3.65;1.60;;;;;;;16.87;50.03;99234.66;262692;1089;24316;-73
2021/06/13 14:53:12;;;;;;;2.20;1.10;;;;;;;16.69;51.32;99235.75;261951;1090;22944;-73
2021/06/13 14:59:01;;;;;;;2.20;1.70;;;;;;;16.40;52.01;99240.66;262069;1090;27580;-72
2021/06/13 15:05:00;;;;;;;3.25;1.30;;;;;;;16.18;52.33;99236.16;262738;1090;23064;-73
2021/06/13 15:11:04;;;;;;;2.50;1.25;;;;;;;16.04;53.22;99236.27;262536;1090;22861;-73
2021/06/13 15:17:46;;;;;;;;;;;;;;;;;;;;;
2021/06/13 15:23:19;;;;;;;2.10;1.05;;;;;;;16.28;51.93;99240.47;262729;1089;22991;-73
2021/06/13 15:28:40;;;;;;;2.80;1.40;;;;;;;16.26;52.53;99242.70;262898;1089;23223;-73
2021/06/13 15:34:33;;;;;;;2.50;1.50;;;;;;;16.33;53.60;99258.47;262465;1090;22886;-71
2021/06/13 15:40:28;;;;;;;4.05;1.40;;;;;;;16.40;53.57;99246.06;262831;1090;22767;-72
2021/06/13 15:45:49;;;;;;;3.47;1.43;;;;;;;16.45;53.40;99234.29;262775;1090;22768;-72
2021/06/13 15:52:10;;;;;;;3.83;1.40;;;;;;;16.23;52.53;99252.23;262633;1089;25960;-72
2021/06/13 15:58:28;;;;;;;;;;;;;;;;;;;;;
2021/06/13 16:03:41;;;;;;;2.00;0.90;;;;;;;16.08;52.36;99241.86;262634;1089;22812;-73
2021/06/13 16:09:32;;;;;;;;;;;;;;;;;;;;;
2021/06/13 16:15:02;;;;;;;1.63;1.10;;;;;;;16.33;52.75;99245.73;262559;1090;22790;-71
2021/06/13 16:21:17;;;;;;;3.20;1.00;;;;;;;16.42;51.93;99261.97;262384;1088;22950;-72
2021/06/13 16:26:17;;;;;;;5.15;1.30;;;;;;;16.47;52.82;99253.71;262405;1090;22943;-71
2021/06/13 16:31:30;;;;;;;4.00;1.20;;;;;;;16.38;52.67;99271.81;262763;1089;22798;-72
2021/06/13 16:36:36;;;;;;;2.65;1.40;;;;;;;16.17;51.81;99261.61;262010;1089;24466;-72
2021/06/13 16:41:43;;;;;;;2.65;1.20;;;;;;;15.90;52.73;99266.09;262467;1090;25881;-73
2021/06/13 16:48:23;;;;;;;3.50;1.40;;;;;;;15.93;54.21;99275.48;262500;1090;22862;-73
2021/06/13 16:53:57;;;;;;;4.87;1.93;;;;;;;16.27;54.58;99273.22;262915;1090;22815;-72
2021/06/13 17:00:19;;;;;;;;;;;;;;;;;;;;;
2021/06/13 17:06:35;;;;;;;4.33;1.37;;;;;;;16.55;54.47;99282.69;261992;1090;22802;-72
2021/06/13 17:13:28;;;;;;;3.53;1.70;;;;;;;18.51;53.62;99286.28;262331;1088;23745;-71
2021/06/13 17:20:02;;;;;;;;;;;;;;;;;;;;;
2021/06/13 17:27:10;;;;;;;;;;;;;;;;;;;;;
2021/06/13 17:33:07;;;;;;;5.23;1.30;;;;;;;18.70;47.83;99285.85;262755;1090;25881;-72
2021/06/13 17:38:55;;;;;;;4.27;1.73;;;;;;;17.88;49.45;99300.42;262600;1088;22782;-71
2021/06/13 17:45:05;;;;;;;4.90;1.60;;;;;;;16.94;50.33;99299.13;262472;1089;24205;-72
2021/06/13 17:51:35;;;;;;;4.65;1.80;;;;;;;16.02;52.28;99297.95;262764;1089;22834;-72
2021/06/13 17:57:42;;;;;;;2.25;1.50;;;;;;;15.47;53.68;99309.05;262650;1088;22815;-72
2021/06/13 18:03:18;;;;;;;3.25;1.70;;;;;;;15.12;54.42;99312.28;262922;1090;22812;-72
2021/06/13 18:09:16;;;;;;;4.70;1.95;;;;;;;14.80;55.48;99314.09;262793;1089;22815;-73
2021/06/13 18:14:49;;;;;;;3.95;1.60;;;;;;;14.44;56.27;99322.89;262496;1089;23046;-71
2021/06/13 18:20:58;;;;;;;2.80;1.40;;;;;;;14.22;57.21;99331.67;262519;1090;22836;-71
2021/06/13 18:26:27;;;;;;;4.37;1.80;;;;;;;14.07;57.69;99321.97;261937;1090;22865;-72
2021/06/13 18:31:54;;;;;;;4.75;2.40;;;;;;;13.82;58.47;99329.44;262418;1090;26366;-73
2021/06/13 18:37:30;;;;;;;5.45;2.35;;;;;;;13.57;58.86;99321.77;261952;1090;22879;-73
2021/06/13 18:42:48;;;;;;;4.08;1.85;;;;;;;13.34;59.68;99329.64;262778;1090;22793;-72
2021/06/13 18:49:44;;;;;;;5.15;1.80;;;;;;;13.11;60.42;99332.14;262568;1090;25783;-71
2021/06/13 18:55:51;;;;;;;;;;;;;;;;;;;;;
2021/06/13 19:02:08;;;;;;;7.10;2.20;;;;;;;12.68;61.97;99356.38;262882;1089;22766;-73
2021/06/13 19:08:26;;;;;;;4.53;2.27;;;;;;;12.50;62.54;99356.03;262966;1090;22792;-73
2021/06/13 19:14:12;;;;;;;;;;;;;;;;;;;;;
2021/06/13 19:20:26;;;;;;;3.40;2.10;;;;;;;12.17;63.79;99375.73;262495;1089;22803;-73
2021/06/13 19:25:48;;;;;;;5.87;2.43;;;;;;;12.04;64.37;99379.89;262598;1089;22959;-71
2021/06/13 19:31:14;;;;;;;6.27;2.20;;;;;;;11.94;64.90;99391.53;262690;1089;24365;-72
2021/06/13 19:36:41;;;;;;;5.00;2.30;;;;;;;11.86;65.68;99394.79;262969;1089;23091;-72
2021/06/13 19:42:17;;;;;;;4.85;2.55;;;;;;;11.76;66.13;99395.67;262742;1090;22947;-73
2021/06/13 19:47:53;;;;;;;3.47;2.50;;;;;;;11.67;66.36;99398.16;263017;1088;22943;-72
2021/06/13 20:00:08;;;;;;;7.30;2.40;;;;;;;11.44;67.06;99400.47;261975;1088;22774;-72
2021/06/13 20:05:21;;;;;;;7.53;3.17;;;;;;;11.34;67.41;99399.73;263090;1089;25883;-71
2021/06/13 20:10:55;;;;;;;4.60;2.20;;;;;;;11.25;68.16;99396.84;262842;1090;22985;-72
2021/06/13 20:16:36;;;;;;;7.30;3.10;;;;;;;11.17;68.27;99389.38;262595;1088;26270;-72
2021/06/13 20:21:52;;;;;;;7.70;3.20;;;;;;;11.05;68.69;99389.69;261963;1089;22802;-71
2021/06/13 20:27:12;;;;;;;8.15;3.25;;;;;;;10.95;68.96;99402.08;261907;1090;22837;-73
2021/06/13 20:32:20;;;;;;;8.27;3.23;;;;;;;10.87;69.37;99412.55;262636;1090;22815;-73
2021/06/13 20:37:54;;;;;;;5.63;3.20;;;;;;;10.81;69.30;99402.94;262122;1090;22870;-72
2021/06/13 20:43:33;;;;;;;9.55;3.20;;;;;;;10.72;69.92;99397.35;262690;1090;22966;-71
2021/06/13 20:48:39;;;;;;;6.30;2.77;;;;;;;10.66;70.19;99395.75;262871;1090;22793;-73
2021/06/13 20:54:06;;;;;;;5.93;2.40;;;;;;;10.60;70.60;99397.65;262541;1090;22907;-72
2021/06/13 20:59:45;;;;;;;;;;;;;;;;;;;;;
2021/06/13 21:05:39;;;;;;;5.70;2.90;;;;;;;10.44;71.10;99395.02;262538;1090;22940;-72
2021/06/13 21:11:56;;;;;;;6.00;2.83;;;;;;;10.39;71.52;99391.55;262567;1090;23904;-71
2021/06/13 21:17:43;;;;;;;6.13;2.90;;;;;;;10.33;71.64;99396.08;262556;1089;22804;-73
2021/06/13 21:23:52;;;;;;;7.87;3.40;;;;;;;10.27;71.73;99400.65;262675;1090;22796;-72
2021/06/13 21:30:04;;;;;;;5.30;3.00;;;;;;;10.19;72.20;99392.38;262823;1090;22812;-72
2021/06/13 21:36:23;;;;;;;9.07;3.00;;;;;;;10.12;72.25;99389.97;262727;1088;22841;-74
2021/06/13 21:42:17;;;;;;;5.30;2.65;;;;;;;10.08;72.49;99400.40;261982;1090;22786;-72
2021/06/13 21:54:10;;;;;;;;;;;;;;;;;;;;;
2021/06/13 22:00:15;;;;;;;7.00;3.00;;;;;;;10.04;73.24;99407.36;261977;1090;22870;-72
2021/06/13 22:06:22;;;;;;;7.85;3.00;;;;;;;9.98;73.23;99397.73;262468;1090;22839;-73
2021/06/13 22:18:48;;;;;;;5.93;2.67;;;;;;;9.89;73.57;99404.69;261918;1090;22809;-72
2021/06/13 22:24:28;;;;;;;5.33;2.40;;;;;;;9.90;73.62;99400.95;262782;1089;22822;-73
2021/06/13 22:30:55;;;;;;;6.17;2.80;;;;;;;9.90;74.09;99398.28;261903;1089;22770;-72
2021/06/13 22:44:15;;;;;;;5.10;2.20;;;;;;;9.90;74.55;99392.92;261874;1090;22797;-73
2021/06/13 22:51:04;;;;;;;;;;;;;;;;;;;;;
2021/06/13 22:57:57;;;;;;;4.50;2.43;;;;;;;9.89;75.05;99400.16;261960;1090;22944;-72
2021/06/13 23:04:21;;;;;;;6.70;2.47;;;;;;;9.87;75.10;99396.94;261794;1090;22879;-72
2021/06/13 23:09:38;;;;;;;5.50;2.40;;;;;;;9.86;74.94;99395.34;262515;1090;22789;-75
2021/06/13 23:15:21;;;;;;;5.27;2.50;;;;;;;9.82;75.26;99396.95;261867;1090;22786;-72
2021/06/13 23:20:57;;;;;;;7.80;2.40;;;;;;;9.80;75.59;99387.59;262461;1090;22805;-73
2021/06/13 23:27:31;;;;;;;9.93;3.10;;;;;;;9.75;75.76;99394.54;262321;1090;25883;-73
2021/06/13 23:33:47;;;;;;;7.73;2.27;;;;;;;9.71;75.92;99388.12;262680;1089;22895;-72
2021/06/13 23:40:15;;;;;;;4.40;2.50;;;;;;;9.72;76.08;99392.41;262641;1090;22880;-72
2021/06/13 23:45:56;;;;;;;;;;;;;;;9.72;76.53;99389.73;262781;1089;22812;-73
2021/06/13 23:51:57;;;;;;;5.23;2.80;;;;;;;9.72;76.30;99383.56;262770;1090;21457;-73
2021/06/13 23:57:38;;;;;;;5.10;2.63;;;;;;;9.69;76.28;99379.54;262627;1090;22800;-72
